createdAt,value
2019-04-30T00:06:38.019Z,101205.61
2019-04-30T00:08:57.573Z,101205.20
2019-04-30T00:11:27.475Z,101206.87
2019-04-30T00:13:58.981Z,101206.87
2019-04-30T00:16:31.000Z,101204.28
2019-04-30T00:19:00.911Z,101199.77
2019-04-30T00:21:28.926Z,101199.77
2019-04-30T00:24:04.936Z,101196.30
2019-04-30T00:26:30.867Z,101197.97
2019-04-30T00:28:59.780Z,101197.92
2019-04-30T00:31:28.338Z,101191.05
2019-04-30T00:34:01.029Z,101195.01
2019-04-30T00:36:34.220Z,101189.61
2019-04-30T00:39:00.339Z,101189.20
2019-04-30T00:41:30.309Z,101188.80
2019-04-30T00:43:59.037Z,101190.97
2019-04-30T00:46:29.447Z,101179.03
2019-04-30T00:49:09.258Z,101187.91
2019-04-30T00:51:30.175Z,101194.09
2019-04-30T00:53:58.727Z,101194.09
2019-04-30T00:56:28.858Z,101188.08
2019-04-30T00:59:02.687Z,101188.08
2019-04-30T01:01:39.215Z,101188.96
2019-04-30T01:04:07.391Z,101185.91
2019-04-30T01:06:35.967Z,101187.70
2019-04-30T01:09:08.538Z,101187.70
2019-04-30T01:11:35.599Z,101189.56
2019-04-30T01:14:04.299Z,101189.56
2019-04-30T01:16:33.265Z,101180.36
2019-04-30T01:19:05.692Z,101180.36
2019-04-30T01:21:32.703Z,101174.48
2019-04-30T01:24:03.437Z,101174.45
2019-04-30T01:26:32.539Z,101183.14
2019-04-30T01:29:02.149Z,101183.14
2019-04-30T01:31:31.721Z,101181.09
2019-04-30T01:34:05.188Z,101180.66
2019-04-30T01:36:31.659Z,101177.28
2019-04-30T01:39:00.213Z,101181.16
2019-04-30T01:41:31.421Z,101179.84
2019-04-30T01:43:59.236Z,101179.84
2019-04-30T01:46:29.421Z,101174.70
2019-04-30T01:48:59.818Z,101173.95
2019-04-30T01:51:28.659Z,101173.95
2019-04-30T01:53:59.454Z,101169.22
2019-04-30T01:56:32.480Z,101173.53
2019-04-30T01:59:19.326Z,101179.17
2019-04-30T02:01:49.781Z,101179.17
2019-04-30T02:04:19.602Z,101176.47
2019-04-30T02:06:49.377Z,101183.02
2019-04-30T02:09:18.926Z,101183.63
2019-04-30T02:11:48.835Z,101179.32
2019-04-30T02:14:18.957Z,101179.32
2019-04-30T02:16:49.426Z,101181.08
2019-04-30T02:19:18.866Z,101186.30
2019-04-30T02:21:48.674Z,101182.07
2019-04-30T02:24:19.185Z,101190.77
2019-04-30T02:26:48.478Z,101190.77
2019-04-30T02:29:18.994Z,101181.66
2019-04-30T02:31:50.087Z,101191.07
2019-04-30T02:34:22.166Z,101197.58
2019-04-30T02:36:54.632Z,101187.86
2019-04-30T02:39:23.216Z,101187.86
2019-04-30T02:41:53.208Z,101183.70
2019-04-30T02:44:23.897Z,101191.31
2019-04-30T02:46:54.530Z,101196.95
2019-04-30T02:49:24.219Z,101199.20
2019-04-30T02:51:56.395Z,101199.20
2019-04-30T02:54:29.706Z,101200.97
2019-04-30T02:57:03.281Z,101200.47
2019-04-30T02:59:31.886Z,101196.19
2019-04-30T03:02:00.483Z,101198.00
2019-04-30T03:04:29.367Z,101200.22
2019-04-30T03:06:59.953Z,101200.22
2019-04-30T03:09:29.675Z,101207.64
2019-04-30T03:12:00.130Z,101204.11
2019-04-30T03:14:30.119Z,101198.48
2019-04-30T03:17:10.232Z,101207.05
2019-04-30T03:19:40.952Z,101213.71
2019-04-30T03:22:11.233Z,101215.95
2019-04-30T03:24:42.929Z,101213.84
2019-04-30T03:27:10.565Z,101211.80
2019-04-30T03:29:40.563Z,101212.73
2019-04-30T03:32:13.361Z,101210.98
2019-04-30T03:34:41.899Z,101218.71
2019-04-30T03:37:10.427Z,101218.69
2019-04-30T03:39:40.023Z,101218.27
2019-04-30T03:42:09.976Z,101221.20
2019-04-30T03:44:39.984Z,101216.54
2019-04-30T03:47:10.903Z,101217.02
2019-04-30T03:49:40.232Z,101213.60
2019-04-30T03:52:12.606Z,101213.11
2019-04-30T03:54:40.802Z,101225.14
2019-04-30T03:57:10.796Z,101216.95
2019-04-30T03:59:40.069Z,101220.86
2019-04-30T04:02:13.202Z,101226.80
2019-04-30T04:04:52.546Z,101226.72
2019-04-30T04:07:34.981Z,101228.43
2019-04-30T04:10:10.098Z,101227.11
2019-04-30T04:12:39.494Z,101226.15
2019-04-30T04:15:10.518Z,101224.01
2019-04-30T04:17:39.771Z,101219.59
2019-04-30T04:20:10.668Z,101228.58
2019-04-30T04:22:40.307Z,101221.65
2019-04-30T04:25:12.610Z,101222.48
2019-04-30T04:27:39.565Z,101225.84
2019-04-30T04:30:10.573Z,101230.17
2019-04-30T04:32:40.698Z,101230.17
2019-04-30T04:35:12.192Z,101232.76
2019-04-30T04:37:39.669Z,101228.84
2019-04-30T04:40:09.318Z,101228.84
2019-04-30T04:42:39.579Z,101234.38
2019-04-30T04:45:09.879Z,101235.61
2019-04-30T04:47:40.116Z,101229.89
2019-04-30T04:50:10.497Z,101239.36
2019-04-30T04:52:39.729Z,101239.36
2019-04-30T04:55:10.074Z,101235.42
2019-04-30T04:57:40.002Z,101233.66
2019-04-30T05:00:10.523Z,101230.06
2019-04-30T05:02:44.022Z,101230.16
2019-04-30T05:05:12.734Z,101236.53
2019-04-30T05:07:41.277Z,101235.23
2019-04-30T05:10:10.069Z,101233.78
2019-04-30T05:12:39.880Z,101235.89
2019-04-30T05:15:09.568Z,101235.39
2019-04-30T05:17:39.826Z,101237.53
2019-04-30T05:20:09.988Z,101240.06
2019-04-30T05:22:39.126Z,101242.46
2019-04-30T05:25:08.962Z,101242.46
2019-04-30T05:27:39.257Z,101245.05
2019-04-30T05:30:09.692Z,101241.05
2019-04-30T05:32:39.272Z,101228.03
2019-04-30T05:35:09.513Z,101252.34
2019-04-30T05:37:38.584Z,101249.63
2019-04-30T05:40:09.199Z,101249.63
2019-04-30T05:42:38.731Z,101259.86
2019-04-30T05:45:09.450Z,101249.48
2019-04-30T05:47:38.935Z,101265.64
2019-04-30T05:50:08.992Z,101272.66
2019-04-30T05:52:39.831Z,101272.66
2019-04-30T05:55:08.690Z,101265.72
2019-04-30T05:57:43.369Z,101265.72
2019-04-30T06:00:09.928Z,101261.19
2019-04-30T06:02:39.874Z,101265.88
2019-04-30T06:05:08.994Z,101265.08
2019-04-30T06:07:39.322Z,101265.08
2019-04-30T06:10:22.197Z,101277.72
2019-04-30T06:12:55.897Z,101267.22
2019-04-30T06:15:35.238Z,101265.55
2019-04-30T06:18:12.897Z,101273.34
2019-04-30T06:20:34.296Z,101263.11
2019-04-30T06:23:02.920Z,101263.11
2019-04-30T06:25:41.213Z,101279.55
2019-04-30T06:28:02.076Z,101281.70
2019-04-30T06:30:31.165Z,101280.09
2019-04-30T06:33:00.473Z,101278.17
2019-04-30T06:35:29.518Z,101275.41
2019-04-30T06:38:00.848Z,101276.31
2019-04-30T06:40:29.759Z,101279.03
2019-04-30T06:43:00.789Z,101278.80
2019-04-30T06:45:29.966Z,101285.34
2019-04-30T06:48:00.449Z,101284.70
2019-04-30T06:50:29.336Z,101285.31
2019-04-30T06:53:01.640Z,101282.92
2019-04-30T06:55:30.919Z,101287.78
2019-04-30T06:58:11.444Z,101283.75
2019-04-30T07:00:40.187Z,101280.32
2019-04-30T07:03:09.596Z,101280.08
2019-04-30T07:05:39.049Z,101281.17
2019-04-30T07:08:38.888Z,101286.50
2019-04-30T07:11:20.281Z,101288.52
2019-04-30T07:13:52.138Z,101288.97
2019-04-30T07:16:21.079Z,101296.27
2019-04-30T07:18:49.629Z,101293.39
2019-04-30T07:21:19.855Z,101286.19
2019-04-30T07:23:49.033Z,101286.34
2019-04-30T07:26:19.681Z,101284.30
2019-04-30T07:28:52.758Z,101287.58
2019-04-30T07:31:19.219Z,101283.39
2019-04-30T07:33:51.451Z,101287.34
2019-04-30T07:36:19.538Z,101284.17
2019-04-30T07:38:54.507Z,101285.93
2019-04-30T07:41:19.077Z,101292.66
2019-04-30T07:43:49.375Z,101287.17
2019-04-30T07:46:20.037Z,101287.75
2019-04-30T07:48:50.139Z,101291.34
2019-04-30T07:51:21.038Z,101285.71
2019-04-30T07:53:49.930Z,101285.22
2019-04-30T07:56:25.614Z,101281.84
2019-04-30T07:58:50.465Z,101290.72
2019-04-30T08:01:19.735Z,101278.50
2019-04-30T08:03:50.577Z,101282.19
2019-04-30T08:06:22.381Z,101286.97
2019-04-30T08:08:51.055Z,101295.97
2019-04-30T08:11:25.650Z,101297.64
2019-04-30T08:13:51.713Z,101297.11
2019-04-30T08:16:20.425Z,101295.06
2019-04-30T08:18:49.288Z,101294.95
2019-04-30T08:21:18.999Z,101288.16
2019-04-30T08:23:48.936Z,101283.04
2019-04-30T08:26:18.775Z,101282.88
2019-04-30T08:28:48.804Z,101272.98
2019-04-30T08:31:19.611Z,101279.40
2019-04-30T08:33:49.056Z,101285.38
2019-04-30T08:36:19.561Z,101284.99
2019-04-30T08:38:49.504Z,101281.47
2019-04-30T08:41:19.313Z,101289.34
2019-04-30T08:43:49.634Z,101289.19
2019-04-30T08:46:19.002Z,101287.56
2019-04-30T08:48:53.039Z,101293.52
2019-04-30T08:51:19.029Z,101288.67
2019-04-30T08:53:48.647Z,101286.96
2019-04-30T08:56:19.577Z,101290.58
2019-04-30T08:58:49.107Z,101285.06
2019-04-30T09:01:19.589Z,101287.68
2019-04-30T09:03:50.912Z,101280.39
2019-04-30T09:06:20.313Z,101273.01
2019-04-30T09:08:49.535Z,101266.17
2019-04-30T09:11:25.223Z,101273.58
2019-04-30T09:13:48.912Z,101271.48
2019-04-30T09:16:19.412Z,101264.42
2019-04-30T09:18:49.434Z,101272.69
2019-04-30T09:21:18.749Z,101266.32
2019-04-30T09:23:52.356Z,101267.27
2019-04-30T09:26:18.744Z,101258.23
2019-04-30T09:28:49.412Z,101270.42
2019-04-30T09:31:19.731Z,101275.40
2019-04-30T09:33:49.254Z,101268.45
2019-04-30T09:36:20.560Z,101272.00
2019-04-30T09:38:48.681Z,101277.44
2019-04-30T09:41:19.107Z,101284.13
2019-04-30T09:43:49.392Z,101270.59
2019-04-30T09:46:26.331Z,101278.13
2019-04-30T09:48:50.372Z,101277.05
2019-04-30T09:51:20.210Z,101278.59
2019-04-30T09:53:56.751Z,101276.25
2019-04-30T09:56:19.403Z,101277.78
2019-04-30T09:58:49.265Z,101273.50
2019-04-30T10:01:17.953Z,101259.05
2019-04-30T10:03:47.074Z,101267.48
2019-04-30T10:06:16.601Z,101259.66
2019-04-30T10:08:48.414Z,101255.59
2019-04-30T10:11:17.214Z,101260.56
2019-04-30T10:13:45.837Z,101263.50
2019-04-30T10:16:22.191Z,101250.91
2019-04-30T10:18:50.742Z,101237.96
2019-04-30T10:21:19.340Z,101242.64
2019-04-30T10:23:49.903Z,101236.33
2019-04-30T10:26:19.322Z,101239.22
2019-04-30T10:28:50.058Z,101234.03
2019-04-30T10:31:20.787Z,101225.52
2019-04-30T10:33:49.145Z,101230.34
2019-04-30T10:36:19.414Z,101222.77
2019-04-30T10:38:49.389Z,101227.08
2019-04-30T10:41:18.799Z,101229.48
2019-04-30T10:43:49.271Z,101222.44
2019-04-30T10:46:17.950Z,101218.94
2019-04-30T10:48:46.520Z,101216.57
2019-04-30T10:51:15.374Z,101218.17
2019-04-30T10:53:44.403Z,101225.22
2019-04-30T10:56:13.036Z,101224.28
2019-04-30T10:58:41.590Z,101220.73
2019-04-30T11:01:10.495Z,101218.98
2019-04-30T11:03:39.218Z,101214.77
2019-04-30T11:06:08.696Z,101214.27
2019-04-30T11:08:37.408Z,101212.70
2019-04-30T11:11:06.145Z,101215.72
2019-04-30T11:13:34.700Z,101206.22
2019-04-30T11:16:12.612Z,101211.46
2019-04-30T11:18:34.131Z,101201.78
2019-04-30T11:21:03.094Z,101196.61
2019-04-30T11:23:32.074Z,101200.36
2019-04-30T11:26:01.618Z,101197.69
2019-04-30T11:28:30.960Z,101199.73
2019-04-30T11:31:07.226Z,101199.42
2019-04-30T11:33:36.313Z,101205.55
2019-04-30T11:36:05.218Z,101197.16
2019-04-30T11:38:33.801Z,101196.94
2019-04-30T11:41:02.420Z,101194.78
2019-04-30T11:43:30.972Z,101196.61
2019-04-30T11:46:20.660Z,101201.91
2019-04-30T11:48:49.376Z,101184.72
2019-04-30T11:51:19.407Z,101188.29
2019-04-30T11:53:49.000Z,101188.31
2019-04-30T11:56:17.769Z,101183.60
2019-04-30T11:58:46.404Z,101179.28
2019-04-30T12:01:26.180Z,101184.37
2019-04-30T12:03:56.096Z,101178.30
2019-04-30T12:06:26.029Z,101184.87
2019-04-30T12:08:56.232Z,101176.95
2019-04-30T12:11:26.577Z,101175.41
2019-04-30T12:13:55.196Z,101179.36
2019-04-30T12:16:23.750Z,101178.33
2019-04-30T12:18:52.313Z,101169.30
2019-04-30T12:21:20.930Z,101174.53
2019-04-30T12:23:49.555Z,101163.70
2019-04-30T12:26:19.072Z,101163.34
2019-04-30T12:28:47.802Z,101159.63
2019-04-30T12:31:18.606Z,101172.65
2019-04-30T12:33:47.183Z,101162.74
2019-04-30T12:36:15.914Z,101165.06
2019-04-30T12:38:44.526Z,101159.06
2019-04-30T12:41:13.153Z,101163.98
2019-04-30T12:43:41.775Z,101151.21
2019-04-30T12:46:10.321Z,101152.10
2019-04-30T12:48:40.521Z,101154.30
2019-04-30T12:51:13.584Z,101150.50
2019-04-30T12:54:00.217Z,101147.59
2019-04-30T12:56:46.646Z,101144.47
2019-04-30T12:59:15.606Z,101145.09
2019-04-30T13:01:44.278Z,101142.50
2019-04-30T13:04:12.831Z,101137.82
2019-04-30T13:06:41.893Z,101148.80
2019-04-30T13:09:11.805Z,101133.44
2019-04-30T13:11:41.819Z,101129.66
2019-04-30T13:14:11.491Z,101126.59
2019-04-30T13:16:40.441Z,101127.16
2019-04-30T13:25:50.685Z,101107.37
2019-04-30T13:28:18.832Z,101111.91
2019-04-30T13:30:49.335Z,101109.46
2019-04-30T13:33:20.477Z,101108.24
2019-04-30T13:35:49.107Z,101104.66
2019-04-30T13:38:45.103Z,101100.46
2019-04-30T13:41:06.543Z,101099.86
2019-04-30T13:43:54.893Z,101100.24
2019-04-30T13:46:23.910Z,101097.72
2019-04-30T13:48:52.522Z,101094.35
2019-04-30T13:51:21.080Z,101089.52
2019-04-30T13:53:49.728Z,101094.16
2019-04-30T13:56:20.199Z,101091.63
2019-04-30T13:58:48.906Z,101091.80
2019-04-30T14:01:18.858Z,101090.05
2019-04-30T14:04:02.987Z,101087.46
2019-04-30T14:06:35.839Z,101084.47
2019-04-30T14:09:11.012Z,101076.53
2019-04-30T14:11:39.626Z,101081.95
2019-04-30T14:14:08.336Z,101082.95
2019-04-30T14:16:36.889Z,101082.21
2019-04-30T14:19:05.628Z,101083.30
2019-04-30T14:21:35.399Z,101081.88
2019-04-30T14:24:04.193Z,101082.59
2019-04-30T14:26:32.746Z,101076.71
2019-04-30T14:29:01.460Z,101077.31
2019-04-30T14:31:30.170Z,101075.98
2019-04-30T14:33:59.315Z,101073.09
2019-04-30T14:36:29.628Z,101075.96
2019-04-30T14:39:13.644Z,101082.58
2019-04-30T14:41:32.623Z,101075.12
2019-04-30T14:44:03.640Z,101068.05
2019-04-30T14:46:34.661Z,101071.59
2019-04-30T14:49:22.292Z,101064.28
2019-04-30T14:51:51.829Z,101071.20
2019-04-30T14:54:22.018Z,101073.44
2019-04-30T14:56:54.694Z,101082.08
2019-04-30T14:59:41.126Z,101077.98
2019-04-30T15:02:23.667Z,101079.73
2019-04-30T15:04:52.207Z,101077.19
2019-04-30T15:07:21.200Z,101078.20
2019-04-30T15:09:50.221Z,101075.56
2019-04-30T15:12:18.831Z,101070.80
2019-04-30T15:14:49.308Z,101064.20
2019-04-30T15:17:17.733Z,101062.42
2019-04-30T15:19:46.311Z,101063.95
2019-04-30T15:22:14.923Z,101060.20
2019-04-30T15:24:43.479Z,101062.25
2019-04-30T15:27:12.548Z,101059.84
2019-04-30T15:29:41.482Z,101059.50
2019-04-30T15:32:10.100Z,101055.28
2019-04-30T15:34:42.185Z,101059.71
2019-04-30T15:37:18.720Z,101052.98
2019-04-30T15:39:40.318Z,101054.10
2019-04-30T15:42:10.603Z,101051.38
2019-04-30T15:44:42.662Z,101049.25
2019-04-30T15:47:10.043Z,101042.05
2019-04-30T15:49:38.603Z,101049.16
2019-04-30T15:52:10.770Z,101058.94
2019-04-30T15:54:39.202Z,101052.30
2019-04-30T15:57:08.907Z,101043.52
2019-04-30T15:59:39.511Z,101044.78
2019-04-30T16:02:10.389Z,101049.57
2019-04-30T16:04:40.574Z,101044.67
2019-04-30T16:07:09.212Z,101046.21
2019-04-30T16:09:58.543Z,101046.97
2019-04-30T16:12:30.662Z,101048.62
2019-04-30T16:14:59.202Z,101060.20
2019-04-30T16:17:29.217Z,101052.64
2019-04-30T16:19:59.593Z,101053.28
2019-04-30T16:22:31.507Z,101056.43
2019-04-30T16:25:00.670Z,101055.86
2019-04-30T16:27:29.317Z,101053.48
2019-04-30T16:29:59.610Z,101057.27
2019-04-30T16:32:30.974Z,101049.59
2019-04-30T16:34:59.584Z,101045.59
2019-04-30T16:37:31.244Z,101043.27
2019-04-30T16:39:59.884Z,101047.06
2019-04-30T16:42:29.079Z,101042.88
2019-04-30T16:45:00.567Z,101042.27
2019-04-30T16:47:29.732Z,101043.05
2019-04-30T16:49:58.951Z,101041.25
2019-04-30T16:52:29.449Z,101039.93
2019-04-30T16:55:01.264Z,101037.50
2019-04-30T16:57:30.365Z,101041.38
2019-04-30T16:59:59.420Z,101032.81
2019-04-30T17:02:31.243Z,101034.73
2019-04-30T17:05:01.504Z,101028.16
2019-04-30T17:07:34.517Z,101030.24
2019-04-30T17:10:04.878Z,101034.29
2019-04-30T17:12:35.132Z,101031.49
2019-04-30T17:15:25.680Z,101034.70
2019-04-30T17:17:54.267Z,101030.64
2019-04-30T17:20:22.979Z,101030.36
2019-04-30T17:22:51.589Z,101026.87
2019-04-30T17:25:20.220Z,101036.55
2019-04-30T17:27:49.245Z,101035.17
2019-04-30T17:30:20.359Z,101031.01
2019-04-30T17:32:49.892Z,101031.34
2019-04-30T17:35:19.129Z,101034.81
2019-04-30T17:37:47.893Z,101027.84
2019-04-30T17:40:19.081Z,101036.11
2019-04-30T17:42:47.555Z,101025.35
2019-04-30T17:45:16.814Z,101027.77
2019-04-30T17:47:45.428Z,101027.58
2019-04-30T17:50:14.406Z,101028.19
2019-04-30T17:52:43.068Z,101027.00
2019-04-30T17:55:12.058Z,101025.95
2019-04-30T17:57:40.693Z,101024.19
2019-04-30T18:00:18.968Z,101020.44
2019-04-30T18:02:42.740Z,101016.78
2019-04-30T18:05:11.569Z,101025.14
2019-04-30T18:07:40.273Z,101022.03
2019-04-30T18:10:11.038Z,101023.16
2019-04-30T18:12:39.760Z,101020.91
2019-04-30T18:15:13.300Z,101026.09
2019-04-30T18:17:43.552Z,101019.66
2019-04-30T18:20:19.168Z,101020.09
2019-04-30T18:23:05.572Z,101027.88
2019-04-30T18:25:38.899Z,101032.50
2019-04-30T18:28:09.159Z,101030.80
2019-04-30T18:30:39.718Z,101031.03
2019-04-30T18:33:09.909Z,101034.38
2019-04-30T18:35:38.932Z,101028.14
2019-04-30T18:38:09.627Z,101031.53
2019-04-30T18:40:39.683Z,101032.11
2019-04-30T18:43:08.592Z,101031.92
2019-04-30T18:45:39.584Z,101034.38
2019-04-30T18:48:09.752Z,101033.53
2019-04-30T18:50:38.415Z,101032.34
2019-04-30T18:53:08.777Z,101036.96
2019-04-30T18:55:37.481Z,101032.30
2019-04-30T18:58:06.395Z,101042.56
2019-04-30T19:00:45.257Z,101041.36
2019-04-30T19:03:14.287Z,101038.91
2019-04-30T19:05:44.615Z,101037.71
2019-04-30T19:08:31.560Z,101046.13
2019-04-30T19:11:19.835Z,101047.88
2019-04-30T19:13:51.115Z,101047.05
2019-04-30T19:16:30.792Z,101048.52
2019-04-30T19:19:12.692Z,101052.95
2019-04-30T19:21:40.999Z,101056.20
2019-04-30T19:24:09.707Z,101055.49
2019-04-30T19:26:38.943Z,101053.61
2019-04-30T19:29:07.915Z,101051.03
2019-04-30T19:31:36.867Z,101058.84
2019-04-30T19:34:05.579Z,101055.65
2019-04-30T19:36:37.608Z,101056.27
2019-04-30T19:39:08.688Z,101056.12
2019-04-30T19:41:38.653Z,101060.88
2019-04-30T19:44:07.299Z,101059.43
2019-04-30T19:46:36.229Z,101063.23
2019-04-30T19:49:04.942Z,101059.56
2019-04-30T19:51:33.560Z,101058.70
2019-04-30T19:54:02.180Z,101055.23
2019-04-30T19:56:32.846Z,101052.06
2019-04-30T19:59:05.234Z,101051.02
2019-04-30T20:01:32.106Z,101055.84
2019-04-30T20:04:00.726Z,101059.66
2019-04-30T20:06:29.635Z,101063.64
2019-04-30T20:09:01.107Z,101059.95
2019-04-30T20:11:29.730Z,101060.16
2019-04-30T20:13:58.279Z,101058.48
2019-04-30T20:16:26.935Z,101054.83
2019-04-30T20:18:59.208Z,101058.02
2019-04-30T20:21:45.383Z,101062.98
2019-04-30T20:24:00.464Z,101064.21
2019-04-30T20:26:29.484Z,101058.88
2019-04-30T20:29:01.390Z,101064.48
2019-04-30T20:31:30.001Z,101059.22
2019-04-30T20:33:59.132Z,101058.00
2019-04-30T20:36:28.960Z,101052.91
2019-04-30T20:39:02.375Z,101054.16
2019-04-30T20:41:32.627Z,101055.70
2019-04-30T20:44:01.337Z,101054.16
2019-04-30T20:46:34.946Z,101049.19
2019-04-30T20:49:00.298Z,101044.70
2019-04-30T20:51:29.132Z,101046.45
2019-04-30T20:53:59.479Z,101044.09
2019-04-30T20:56:30.967Z,101046.68
2019-04-30T20:59:05.231Z,101044.48
2019-04-30T21:01:30.038Z,101042.88
2019-04-30T21:03:58.641Z,101036.20
2019-04-30T21:06:29.780Z,101038.75
2019-04-30T21:08:58.531Z,101037.17
2019-04-30T21:11:28.789Z,101040.61
2019-04-30T21:13:59.099Z,101035.43
2019-04-30T21:16:27.869Z,101036.67
2019-04-30T21:18:56.577Z,101039.53
2019-04-30T21:21:28.766Z,101043.48
2019-04-30T21:24:00.565Z,101038.75
2019-04-30T21:26:29.185Z,101038.42
2019-04-30T21:29:10.406Z,101038.38
2019-04-30T21:31:35.114Z,101039.01
2019-04-30T21:34:23.798Z,101029.05
2019-04-30T21:36:52.610Z,101032.16
2019-04-30T21:39:21.212Z,101027.37
2019-04-30T21:41:49.825Z,101029.00
2019-04-30T21:44:18.440Z,101025.24
2019-04-30T21:46:51.008Z,101015.78
2019-04-30T21:49:23.217Z,101015.09
2019-04-30T21:51:51.791Z,101015.28
2019-04-30T21:54:20.402Z,101014.16
2019-04-30T21:56:49.044Z,101013.36
2019-04-30T21:59:24.184Z,101016.09
2019-04-30T22:01:48.148Z,101011.05
2019-04-30T22:04:16.963Z,101012.12
2019-04-30T22:06:46.713Z,101011.75
2019-04-30T22:09:15.600Z,101013.10
2019-04-30T22:11:44.260Z,101007.45
2019-04-30T22:14:14.050Z,101011.27
2019-04-30T22:16:42.940Z,101015.73
2019-04-30T22:19:19.946Z,101014.90
2019-04-30T22:21:50.326Z,101009.55
2019-04-30T22:30:26.804Z,101007.89
2019-04-30T22:33:04.739Z,101006.43
2019-04-30T22:47:50.392Z,100997.26
2019-04-30T22:50:19.107Z,100995.34
2019-04-30T22:52:52.515Z,100987.91
2019-04-30T22:55:22.576Z,100985.84
2019-04-30T22:57:51.180Z,100982.41
2019-04-30T23:00:24.132Z,100984.32
2019-04-30T23:03:03.356Z,100981.91
2019-04-30T23:05:31.969Z,100978.12
2019-04-30T23:08:02.483Z,100973.00
2019-04-30T23:13:53.990Z,100966.89
2019-04-30T23:16:22.539Z,100973.25
2019-04-30T23:21:56.678Z,100967.44
2019-04-30T23:24:41.321Z,100965.69
2019-04-30T23:27:18.954Z,100955.15
2019-04-30T23:33:00.516Z,100951.84
2019-04-30T23:38:29.290Z,100940.69
2019-04-30T23:41:02.820Z,100941.27
2019-04-30T23:43:34.735Z,100936.62
2019-04-30T23:46:06.834Z,100933.63
2019-04-30T23:48:39.556Z,100930.91
2019-04-30T23:51:14.911Z,100925.97
2019-04-30T23:53:43.527Z,100924.84
2019-04-30T23:56:12.754Z,100913.72
2019-04-30T23:58:41.627Z,100908.06
